Bugra Tomba — TCEJ — position and weather

sailwx.info

Track history (hours):
 
Tides and Currents Weather Stations Pressure Air Temp Water Temp Dewpoint Dewpoint Depression Visibility Wind Speed Wind Dir Waves Ship Positions

Bugra Tomba

Last reported at 2017-Mar-23 14:33 UTC. Time now 2017-Mar-27 22:30 UTC.
Position N 40°50' E 029°16'.

Length 99 m; draft 3.5 m.

Type: Cargo ship. MMSI: 271000025.

Date/timePositionNaut miles runAvg speedWind from/ knotsBaromVisibWave heightAir tempDewpointWater temp
2017-Mar-23 14:33N 40°50' E 029°16'0 0.0
2017-Mar-23 13:09N 40°50' E 029°16'0 0.0
2017-Mar-23 12:03N 40°50' E 029°16'0 0.0
2017-Mar-23 11:33N 40°50' E 029°16'0 0.0
2017-Mar-23 10:21N 40°50' E 029°16'0 0.0
2017-Mar-23 09:33N 40°50' E 029°16'0 0.0
2017-Mar-23 08:15N 40°50' E 029°16'0 0.1
2017-Mar-23 07:33N 40°50' E 029°16'0 0.0
2017-Mar-23 06:33N 40°50' E 029°16'  
2017-Mar-16 01:29N 40°53' E 029°12'0 0.0
2017-Mar-16 00:29N 40°53' E 029°12'0 0.0
2017-Mar-15 23:29N 40°53' E 029°12'0 0.0
2017-Mar-15 21:29N 40°53' E 029°12'0 0.0
2017-Mar-15 20:23N 40°52' E 029°12'0 0.0
2017-Mar-15 19:29N 40°52' E 029°12'0 0.1
2017-Mar-15 18:29N 40°53' E 029°12'0 0.0
2017-Mar-15 17:23N 40°53' E 029°12'0 0.0
2017-Mar-15 16:23N 40°53' E 029°12'0 0.0
2017-Mar-15 15:29N 40°52' E 029°12'0 0.0
2017-Mar-15 14:17N 40°52' E 029°12'0 0.0
2017-Mar-15 13:29N 40°52' E 029°12'0 0.0
2017-Mar-15 12:29N 40°52' E 029°12'0 0.0
2017-Mar-15 11:29N 40°52' E 029°12'0 0.0
2017-Mar-15 10:29N 40°52' E 029°12'0 0.0
2017-Mar-15 09:29N 40°52' E 029°12'0 0.0
2017-Mar-15 07:29N 40°52' E 029°12'0 0.0
2017-Mar-15 05:23N 40°52' E 029°12'0 0.0
2017-Mar-15 04:23N 40°52' E 029°12'0 0.0
2017-Mar-15 03:29N 40°52' E 029°12'0 0.0
2017-Mar-15 02:23N 40°53' E 029°12'0 0.0
2017-Mar-15 01:29N 40°53' E 029°12'0 0.0
2017-Mar-15 00:23N 40°53' E 029°12'0 0.1
2017-Mar-14 23:33N 40°52' E 029°12'7 7.0
2017-Mar-14 22:33N 40°46' E 029°16'9 8.5
2017-Mar-14 21:30N 40°45' E 029°28'2 0.2
2017-Mar-14 11:12N 40°45' E 029°30'6 8.7
2017-Mar-14 10:33N 40°44' E 029°23'8 8.3
2017-Mar-14 09:33N 40°43' E 029°12'8 8.3
2017-Mar-14 08:33N 40°42' E 029°01'  
Track history (hours):
 
Tides and Currents Weather Stations Pressure Air Temp Water Temp Dewpoint Dewpoint Depression Visibility Wind Speed Wind Dir Waves Ship Positions

Bugra Tomba

Last reported at 2017-Mar-23 14:33 UTC. Time now 2017-Mar-27 22:30 UTC.
Position N 40°50' E 029°16'.

Length 99 m; draft 3.5 m.

Type: Cargo ship. MMSI: 271000025.

Date/timePositionNaut miles runAvg speedWind from/ knotsBaromVisibWave heightAir tempDewpointWater temp
2017-Mar-23 14:33N 40°50' E 029°16'0 0.0
2017-Mar-23 13:09N 40°50' E 029°16'0 0.0
2017-Mar-23 12:03N 40°50' E 029°16'0 0.0
2017-Mar-23 11:33N 40°50' E 029°16'0 0.0
2017-Mar-23 10:21N 40°50' E 029°16'0 0.0
2017-Mar-23 09:33N 40°50' E 029°16'0 0.0
2017-Mar-23 08:15N 40°50' E 029°16'0 0.1
2017-Mar-23 07:33N 40°50' E 029°16'0 0.0
2017-Mar-23 06:33N 40°50' E 029°16'  
2017-Mar-16 01:29N 40°53' E 029°12'0 0.0
2017-Mar-16 00:29N 40°53' E 029°12'0 0.0
2017-Mar-15 23:29N 40°53' E 029°12'0 0.0
2017-Mar-15 21:29N 40°53' E 029°12'0 0.0
2017-Mar-15 20:23N 40°52' E 029°12'0 0.0
2017-Mar-15 19:29N 40°52' E 029°12'0 0.1
2017-Mar-15 18:29N 40°53' E 029°12'0 0.0
2017-Mar-15 17:23N 40°53' E 029°12'0 0.0
2017-Mar-15 16:23N 40°53' E 029°12'0 0.0
2017-Mar-15 15:29N 40°52' E 029°12'0 0.0
2017-Mar-15 14:17N 40°52' E 029°12'0 0.0
2017-Mar-15 13:29N 40°52' E 029°12'0 0.0
2017-Mar-15 12:29N 40°52' E 029°12'0 0.0
2017-Mar-15 11:29N 40°52' E 029°12'0 0.0
2017-Mar-15 10:29N 40°52' E 029°12'0 0.0
2017-Mar-15 09:29N 40°52' E 029°12'0 0.0
2017-Mar-15 07:29N 40°52' E 029°12'0 0.0
2017-Mar-15 05:23N 40°52' E 029°12'0 0.0
2017-Mar-15 04:23N 40°52' E 029°12'0 0.0
2017-Mar-15 03:29N 40°52' E 029°12'0 0.0
2017-Mar-15 02:23N 40°53' E 029°12'0 0.0
2017-Mar-15 01:29N 40°53' E 029°12'0 0.0
2017-Mar-15 00:23N 40°53' E 029°12'0 0.1
2017-Mar-14 23:33N 40°52' E 029°12'7 7.0
2017-Mar-14 22:33N 40°46' E 029°16'9 8.5
2017-Mar-14 21:30N 40°45' E 029°28'2 0.2
2017-Mar-14 11:12N 40°45' E 029°30'6 8.7
2017-Mar-14 10:33N 40°44' E 029°23'8 8.3
2017-Mar-14 09:33N 40°43' E 029°12'8 8.3
2017-Mar-14 08:33N 40°42' E 029°01'  

Dump ship's entire track history